Time;durP1;ratioP1;P1;durP2;ratioP2;P2;SDS_P1;SDS_P2;PMS_P1;PMS_P2;Temp;Humidity;BMP_temperature;BMP_pressure;BME280_temperature;BME280_humidity;BME280_pressure;Samples;Min_cycle;Max_cycle;Signal;HPM_P1;HPM_P2
2022/03/29 00:02:04;;;;;;;;;;;;;;;18.31;60.13;101077.03;5049608;28;1694;-33
2022/03/29 00:04:33;;;;;;;;;;;;;;;18.26;60.53;101084.56;5049612;28;1646;-33
2022/03/29 00:07:01;;;;;;;;;;;;;;;18.25;60.27;101082.91;5055520;28;1543;-33
2022/03/29 00:09:30;;;;;;;;;;;;;;;18.23;60.42;101074.97;5056347;28;1514;-33
2022/03/29 00:11:58;;;;;;;;;;;;;;;18.20;60.22;101072.53;5043021;28;1909;-33
2022/03/29 00:14:27;;;;;;;;;;;;;;;18.22;60.29;101077.78;5045465;28;1786;-33
2022/03/29 00:23:05;;;;;;;;;;;;;;;18.20;60.51;101064.50;5050448;28;1586;-33
2022/03/29 00:25:45;;;;;;;;;;;;;;;18.65;58.71;101067.09;5053289;28;1668;-33
2022/03/29 00:28:20;;;;;;;;;;;;;;;18.90;59.07;101056.22;5047772;28;1833;-33
2022/03/29 00:30:49;;;;;;;;;;;;;;;19.05;58.64;101058.47;5040306;28;1786;-33
2022/03/29 00:33:16;;;;;;;;;;;;;;;19.19;58.72;101056.47;5058159;28;1911;-33
2022/03/29 00:35:42;;;;;;;;;;;;;;;19.42;58.24;101051.84;5041291;28;1892;-33
2022/03/29 00:38:26;;;;;;;;;;;;;;;19.65;56.78;101052.53;5051714;28;1370;-33
2022/03/29 00:43:34;;;;;;;;;;;;;;;18.83;59.36;101047.84;5051699;28;2444;-33
2022/03/29 00:46:04;;;;;;;;;;;;;;;18.61;59.96;101035.34;5048122;28;1664;-33
2022/03/29 00:48:31;;;;;;;;;;;;;;;18.48;59.96;101041.72;5061464;28;1811;-33
2022/03/29 00:54:00;;;;;;;;;;;;;;;18.40;60.05;101037.94;5049147;28;2699;-33
2022/03/29 00:56:29;;;;;;;;;;;;;;;18.38;60.69;101026.50;5058683;28;1619;-33
2022/03/29 00:58:59;;;;;;;;;;;;;;;18.33;60.40;101015.34;5045053;28;1518;-33
2022/03/29 01:01:27;;;;;;;;;;;;;;;18.28;60.19;101024.59;5047144;28;1717;-33
2022/03/29 01:03:57;;;;;;;;;;;;;;;18.26;60.32;101020.34;5048748;28;1435;-33
2022/03/29 01:06:25;;;;;;;;;;;;;;;18.22;60.44;101010.84;5050936;28;1799;-33
2022/03/29 01:09:00;;;;;;;;;;;;;;;18.20;60.40;101007.44;5050713;28;1914;-33
2022/03/29 01:11:34;;;;;;;;;;;;;;;18.21;60.04;101011.84;5052595;28;1737;-33
2022/03/29 01:14:01;;;;;;;;;;;;;;;18.37;59.74;101000.72;5039628;28;1913;-33
2022/03/29 01:19:15;;;;;;;;;;;;;;;18.95;58.99;101013.81;5037596;28;1782;-33
2022/03/29 01:21:56;;;;;;;;;;;;;;;19.02;58.83;100994.41;5049407;28;1630;-33
2022/03/29 01:24:32;;;;;;;;;;;;;;;19.31;58.62;101011.69;5050178;28;1906;-33
2022/03/29 01:27:00;;;;;;;;;;;;;;;19.66;57.83;100989.84;5048223;28;1536;-33
2022/03/29 01:29:29;;;;;;;;;;;;;;;19.51;57.26;100975.94;5039251;28;1762;-33
2022/03/29 01:32:06;;;;;;;;;;;;;;;19.13;58.37;100987.28;5055618;28;1943;-33
2022/03/29 01:34:35;;;;;;;;;;;;;;;18.76;59.61;100971.59;5052863;28;1983;-33
2022/03/29 01:37:08;;;;;;;;;;;;;;;18.58;59.77;100980.22;5057285;28;1538;-33
2022/03/29 01:39:37;;;;;;;;;;;;;;;18.49;60.15;100984.50;5057081;28;2096;-33
2022/03/29 01:42:04;;;;;;;;;;;;;;;18.42;60.35;100977.09;5043897;28;1734;-33
2022/03/29 01:44:31;;;;;;;;;;;;;;;18.34;60.38;100984.91;5052256;28;1652;-33
2022/03/29 01:47:00;;;;;;;;;;;;;;;18.32;60.27;100976.16;5044128;28;1613;-33
2022/03/29 01:49:29;;;;;;;;;;;;;;;18.29;60.04;100971.91;5059268;28;1711;-33
2022/03/29 01:51:56;;;;;;;;;;;;;;;18.28;60.18;100967.50;5051081;28;1732;-33
2022/03/29 01:54:24;;;;;;;;;;;;;;;18.23;60.25;100972.41;5058755;28;2034;-33
2022/03/29 01:56:54;;;;;;;;;;;;;;;18.21;60.41;100969.84;5053319;28;1443;-33
2022/03/29 01:59:23;;;;;;;;;;;;;;;18.21;60.28;100975.22;5048560;28;1725;-33
2022/03/29 02:01:50;;;;;;;;;;;;;;;18.17;60.32;100955.03;5089089;22;3735;-71
2022/03/29 02:04:17;;;;;;;;;;;;;;;18.16;60.35;100952.47;5068194;28;1704;-71
2022/03/29 02:06:44;;;;;;;;;;;;;;;18.15;60.42;100948.94;5062499;28;1379;-60
2022/03/29 02:09:11;;;;;;;;;;;;;;;18.14;60.37;100952.59;5061064;28;1568;-72
2022/03/29 02:11:40;;;;;;;;;;;;;;;18.12;60.32;100949.19;5072669;28;1521;-60
2022/03/29 02:14:08;;;;;;;;;;;;;;;18.08;60.33;100945.94;5063304;28;1988;-71
2022/03/29 02:16:35;;;;;;;;;;;;;;;18.11;60.44;100941.31;5060131;28;1640;-69
2022/03/29 02:19:01;;;;;;;;;;;;;;;18.04;60.32;100940.94;5067266;28;1386;-62
2022/03/29 02:21:28;;;;;;;;;;;;;;;18.06;60.50;100944.34;5063830;28;1501;-58
2022/03/29 02:23:54;;;;;;;;;;;;;;;18.32;59.90;100927.97;5063701;28;1549;-57
2022/03/29 02:26:21;;;;;;;;;;;;;;;18.73;58.83;100924.50;5070795;28;1458;-69
2022/03/29 02:28:48;;;;;;;;;;;;;;;18.91;58.94;100914.06;5062973;28;1492;-57
2022/03/29 02:31:16;;;;;;;;;;;;;;;18.98;58.41;100914.41;5059602;28;1392;-57
2022/03/29 02:33:42;;;;;;;;;;;;;;;19.17;58.52;100919.03;5059676;28;1972;-57
2022/03/29 02:36:12;;;;;;;;;;;;;;;19.43;58.06;100909.53;5065324;28;1422;-69
2022/03/29 02:38:39;;;;;;;;;;;;;;;19.56;56.96;100919.22;5068781;28;1589;-57
2022/03/29 02:41:06;;;;;;;;;;;;;;;19.69;56.69;100909.06;5059097;28;1535;-69
2022/03/29 02:43:32;;;;;;;;;;;;;;;19.76;56.28;100910.28;5064644;28;1821;-57
2022/03/29 02:45:59;;;;;;;;;;;;;;;19.68;57.38;100912.75;5058759;28;1708;-57
2022/03/29 02:48:27;;;;;;;;;;;;;;;19.67;57.55;100901.16;5056570;28;1638;-57
2022/03/29 02:50:53;;;;;;;;;;;;;;;19.32;58.28;100906.97;5069502;28;1311;-69
2022/03/29 02:53:20;;;;;;;;;;;;;;;18.91;59.38;100898.00;5062993;28;1980;-57
2022/03/29 02:55:46;;;;;;;;;;;;;;;18.66;59.91;100910.78;5064054;28;1656;-57
2022/03/29 02:58:13;;;;;;;;;;;;;;;18.56;59.58;100912.56;5066770;28;1814;-57
2022/03/29 03:00:40;;;;;;;;;;;;;;;18.49;59.63;100892.59;5059756;28;1501;-58
2022/03/29 03:03:07;;;;;;;;;;;;;;;18.40;59.87;100898.72;5063360;28;1267;-69
2022/03/29 03:05:35;;;;;;;;;;;;;;;18.35;59.71;100882.22;5073765;28;1568;-69
2022/03/29 03:08:02;;;;;;;;;;;;;;;18.34;60.38;100899.25;5060664;28;1595;-57
2022/03/29 03:10:29;;;;;;;;;;;;;;;18.28;60.13;100895.25;5062285;28;1699;-69
2022/03/29 03:12:55;;;;;;;;;;;;;;;18.24;60.27;100886.63;5062147;28;1905;-65
2022/03/29 03:15:23;;;;;;;;;;;;;;;18.24;60.08;100888.44;5056642;28;1744;-57
2022/03/29 03:17:51;;;;;;;;;;;;;;;18.20;60.02;100887.84;5061820;28;1708;-58
2022/03/29 03:20:18;;;;;;;;;;;;;;;18.17;59.91;100877.41;5064047;28;1523;-70
2022/03/29 03:22:46;;;;;;;;;;;;;;;18.16;60.38;100886.41;5059522;28;1410;-58
2022/03/29 03:25:12;;;;;;;;;;;;;;;18.14;59.95;100874.97;5065604;28;1513;-70
2022/03/29 03:27:40;;;;;;;;;;;;;;;18.12;59.82;100884.13;5065468;28;1369;-68
2022/03/29 03:30:09;;;;;;;;;;;;;;;18.07;60.19;100882.66;5058465;28;1437;-58
2022/03/29 03:32:35;;;;;;;;;;;;;;;18.07;59.93;100882.66;5057187;28;1740;-69
2022/03/29 03:35:02;;;;;;;;;;;;;;;18.07;60.20;100881.81;5067954;28;1971;-70
2022/03/29 03:37:30;;;;;;;;;;;;;;;18.05;59.87;100878.44;5066293;28;1267;-58
2022/03/29 03:39:58;;;;;;;;;;;;;;;18.06;60.31;100880.13;5065680;28;1376;-58
2022/03/29 03:42:24;;;;;;;;;;;;;;;18.02;60.11;100867.97;5063986;28;1584;-70
2022/03/29 03:44:51;;;;;;;;;;;;;;;18.02;60.22;100879.50;5061913;28;1487;-58
2022/03/29 03:47:17;;;;;;;;;;;;;;;18.00;60.33;100876.09;5061055;28;1845;-58
2022/03/29 03:49:44;;;;;;;;;;;;;;;17.97;60.38;100880.88;5065431;28;1454;-59
2022/03/29 03:52:11;;;;;;;;;;;;;;;17.97;60.50;100872.88;5062670;28;1767;-58
2022/03/29 03:54:37;;;;;;;;;;;;;;;17.94;59.91;100876.63;5067235;28;1950;-70
2022/03/29 03:57:06;;;;;;;;;;;;;;;17.97;60.43;100881.72;5061488;28;1762;-58
2022/03/29 03:59:33;;;;;;;;;;;;;;;17.94;60.45;100876.63;5067577;28;1327;-58
2022/03/29 04:01:59;;;;;;;;;;;;;;;17.95;60.51;100872.13;5061391;28;1704;-70
2022/03/29 04:04:26;;;;;;;;;;;;;;;17.94;60.55;100875.78;5058767;28;1314;-58
2022/03/29 04:06:53;;;;;;;;;;;;;;;17.96;60.29;100873.81;5066709;28;1279;-58
2022/03/29 04:09:20;;;;;;;;;;;;;;;17.92;60.37;100867.88;5058089;28;1703;-58
2022/03/29 04:11:48;;;;;;;;;;;;;;;17.91;60.52;100870.69;5064885;28;1357;-58
2022/03/29 04:14:16;;;;;;;;;;;;;;;17.92;60.22;100878.56;5069751;28;1902;-58
2022/03/29 04:16:42;;;;;;;;;;;;;;;17.91;60.54;100871.53;5060327;28;1830;-70
2022/03/29 04:19:09;;;;;;;;;;;;;;;17.91;60.51;100873.38;5061291;28;1361;-70
2022/03/29 04:21:35;;;;;;;;;;;;;;;17.91;60.14;100882.25;5070008;28;1639;-58
2022/03/29 04:24:02;;;;;;;;;;;;;;;17.86;60.38;100869.22;5059867;28;1529;-70
2022/03/29 04:26:30;;;;;;;;;;;;;;;17.86;60.66;100874.56;5065433;28;1697;-58
2022/03/29 04:28:57;;;;;;;;;;;;;;;17.88;60.31;100877.13;5072442;28;1374;-70
2022/03/29 04:31:25;;;;;;;;;;;;;;;17.85;60.77;100872.88;5059050;28;1699;-58
2022/03/29 04:33:52;;;;;;;;;;;;;;;17.79;60.90;100868.00;5065545;28;1909;-58
2022/03/29 04:36:18;;;;;;;;;;;;;;;17.83;60.86;100877.50;5064697;28;1522;-70
2022/03/29 04:38:45;;;;;;;;;;;;;;;17.83;60.88;100882.84;5061826;28;1307;-69
2022/03/29 04:41:12;;;;;;;;;;;;;;;17.84;60.51;100884.53;5065911;28;1513;-70
2022/03/29 04:43:38;;;;;;;;;;;;;;;17.98;60.95;100885.25;5061926;28;1554;-70
2022/03/29 04:46:05;;;;;;;;;;;;;;;18.42;59.37;100872.66;5063278;28;1675;-69
2022/03/29 04:48:33;;;;;;;;;;;;;;;18.61;58.64;100869.28;5065350;28;1450;-58
2022/03/29 04:51:00;;;;;;;;;;;;;;;18.83;59.00;100862.97;5062187;28;1430;-70
2022/03/29 04:53:27;;;;;;;;;;;;;;;18.95;58.72;100861.91;5061704;28;1910;-58
2022/03/29 04:55:53;;;;;;;;;;;;;;;19.39;57.16;100864.38;5067575;28;1481;-70
2022/03/29 04:58:21;;;;;;;;;;;;;;;19.36;57.62;100860.13;5062078;28;1751;-58
2022/03/29 05:00:47;;;;;;;;;;;;;;;19.40;57.31;100863.41;5055361;28;1431;-58
2022/03/29 05:03:14;;;;;;;;;;;;;;;19.54;57.42;100867.53;5064070;28;1315;-58
2022/03/29 05:05:42;;;;;;;;;;;;;;;19.50;56.61;100856.22;5060614;28;1334;-58
2022/03/29 05:08:08;;;;;;;;;;;;;;;19.59;57.39;100868.81;5065490;28;1528;-70
2022/03/29 05:10:36;;;;;;;;;;;;;;;19.62;56.49;100875.75;5070272;28;1524;-58
2022/03/29 05:13:03;;;;;;;;;;;;;;;19.68;57.21;100878.72;5061382;28;1648;-58
2022/03/29 05:15:29;;;;;;;;;;;;;;;19.71;56.94;100876.75;5055604;28;1977;-58
2022/03/29 05:17:56;;;;;;;;;;;;;;;19.72;56.66;100871.28;5058936;28;1497;-58
2022/03/29 05:20:24;;;;;;;;;;;;;;;19.46;56.85;100871.75;5064377;28;1424;-70
2022/03/29 05:22:55;;;;;;;;;;;;;;;18.99;58.88;100858.00;5064203;28;1699;-70
2022/03/29 05:25:22;;;;;;;;;;;;;;;18.71;59.32;100858.66;5059550;28;1532;-58
2022/03/29 05:27:49;;;;;;;;;;;;;;;18.57;59.49;100868.69;5057102;28;1743;-67
2022/03/29 05:30:16;;;;;;;;;;;;;;;18.46;59.30;100856.22;5057949;28;1478;-58
2022/03/29 05:32:43;;;;;;;;;;;;;;;18.26;57.92;100852.56;5058542;28;1756;-58
2022/03/29 05:35:10;;;;;;;;;;;;;;;18.13;58.83;100862.59;5061421;28;1973;-58
2022/03/29 05:37:37;;;;;;;;;;;;;;;18.12;58.93;100858.19;5033795;28;12166;-64
2022/03/29 05:40:06;;;;;;;;;;;;;;;18.10;59.86;100854.78;5051769;28;1746;-64
2022/03/29 05:42:37;;;;;;;;;;;;;;;18.07;59.57;100855.06;5054507;28;1313;-70
2022/03/29 05:45:03;;;;;;;;;;;;;;;18.05;59.62;100849.84;5058161;28;1382;-70
2022/03/29 05:50:14;;;;;;;;;;;;;;;18.11;59.23;100843.13;5062481;28;1366;-59
2022/03/29 05:52:41;;;;;;;;;;;;;;;18.12;59.71;100852.84;5058906;28;1537;-58
2022/03/29 05:55:09;;;;;;;;;;;;;;;18.12;59.79;100854.66;5060683;28;1910;-66
2022/03/29 05:57:36;;;;;;;;;;;;;;;18.11;60.23;100855.66;5062547;28;1533;-64
2022/03/29 06:00:03;;;;;;;;;;;;;;;18.06;59.75;100848.00;5055377;28;1715;-58
2022/03/29 06:02:29;;;;;;;;;;;;;;;18.03;60.23;100850.94;5062077;28;1431;-58
2022/03/29 06:04:56;;;;;;;;;;;;;;;18.02;60.44;100850.06;5066011;28;1322;-57
2022/03/29 06:07:22;;;;;;;;;;;;;;;18.07;60.20;100833.66;5053294;28;1606;-58
2022/03/29 06:09:49;;;;;;;;;;;;;;;18.06;59.94;100839.97;5056337;28;1715;-64
2022/03/29 06:12:22;;;;;;;;;;;;;;;18.08;59.81;100840.69;5057572;28;1671;-65
2022/03/29 06:14:49;;;;;;;;;;;;;;;18.23;59.44;100838.56;5061232;28;1910;-57
2022/03/29 06:17:16;;;;;;;;;;;;;;;18.24;59.67;100835.78;5058389;28;1362;-57
2022/03/29 06:19:43;;;;;;;;;;;;;;;18.25;59.06;100841.97;5068029;28;1521;-69
2022/03/29 06:22:10;;;;;;;;;;;;;;;18.29;59.50;100838.91;5068886;28;1356;-55
2022/03/29 06:24:36;;;;;;;;;;;;;;;18.32;59.51;100828.91;5061437;28;1584;-56
2022/03/29 06:27:03;;;;;;;;;;;;;;;18.32;59.93;100834.25;5066117;28;1424;-60
2022/03/29 06:29:31;;;;;;;;;;;;;;;18.31;60.01;100829.91;5063722;28;1569;-62
2022/03/29 06:31:58;;;;;;;;;;;;;;;18.33;59.78;100830.63;5062136;28;1575;-63
2022/03/29 06:34:25;;;;;;;;;;;;;;;18.36;59.81;100835.72;5068367;28;1906;-65
2022/03/29 06:36:52;;;;;;;;;;;;;;;18.33;60.20;100838.66;5069644;28;1664;-62
2022/03/29 06:39:18;;;;;;;;;;;;;;;18.35;59.50;100821.47;5062082;28;1302;-55
2022/03/29 06:41:45;;;;;;;;;;;;;;;18.41;59.55;100822.78;5063300;28;1369;-64
2022/03/29 06:44:13;;;;;;;;;;;;;;;18.44;59.88;100820.72;5068027;28;1540;-66
2022/03/29 06:46:42;;;;;;;;;;;;;;;18.47;60.21;100835.66;5053320;28;1421;-57
2022/03/29 06:49:08;;;;;;;;;;;;;;;18.46;60.49;100818.75;5068388;28;1824;-58
2022/03/29 06:51:35;;;;;;;;;;;;;;;18.52;60.03;100817.34;5066856;28;1518;-65
2022/03/29 06:54:02;;;;;;;;;;;;;;;18.61;59.76;100816.56;5060555;28;1969;-57
2022/03/29 06:56:30;;;;;;;;;;;;;;;18.68;59.84;100811.53;5057229;28;1354;-57
2022/03/29 06:58:57;;;;;;;;;;;;;;;18.61;60.40;100811.22;5062686;28;1314;-57
2022/03/29 07:01:24;;;;;;;;;;;;;;;18.54;60.74;100814.53;5059548;28;1570;-57
2022/03/29 07:03:52;;;;;;;;;;;;;;;18.51;60.17;100807.63;5065014;28;1596;-58
2022/03/29 07:06:18;;;;;;;;;;;;;;;18.49;59.47;100805.06;5064540;28;1541;-58
2022/03/29 07:11:25;;;;;;;;;;;;;;;18.51;59.44;100802.28;5067061;28;1438;-67
2022/03/29 07:13:53;;;;;;;;;;;;;;;18.50;59.53;100808.59;5067389;28;1889;-66
2022/03/29 07:16:19;;;;;;;;;;;;;;;18.53;59.11;100789.59;5058411;28;1902;-57
2022/03/29 07:18:46;;;;;;;;;;;;;;;18.53;59.01;100786.09;5068507;28;1704;-66
2022/03/29 07:21:14;;;;;;;;;;;;;;;18.58;59.09;100795.44;5058457;28;1706;-61
2022/03/29 07:23:41;;;;;;;;;;;;;;;18.57;58.64;100780.31;5064740;28;1456;-68
2022/03/29 07:26:08;;;;;;;;;;;;;;;18.54;58.81;100779.72;5070136;28;1255;-58
2022/03/29 07:28:35;;;;;;;;;;;;;;;18.53;58.92;100770.84;5061846;28;1537;-57
2022/03/29 07:31:03;;;;;;;;;;;;;;;18.51;58.19;100778.19;5058911;28;1361;-67
2022/03/29 07:33:29;;;;;;;;;;;;;;;18.50;58.15;100771.09;5069060;28;1711;-58
2022/03/29 07:35:56;;;;;;;;;;;;;;;18.47;58.49;100774.06;5058534;28;1979;-68
2022/03/29 07:38:24;;;;;;;;;;;;;;;18.46;58.48;100778.59;5064540;28;1528;-57
2022/03/29 07:40:50;;;;;;;;;;;;;;;18.40;58.63;100767.53;5065864;28;1748;-68
2022/03/29 07:43:17;;;;;;;;;;;;;;;18.39;58.34;100769.38;5059994;28;1604;-58
2022/03/29 07:45:44;;;;;;;;;;;;;;;18.43;58.29;100767.28;5055798;28;1292;-58
2022/03/29 07:48:10;;;;;;;;;;;;;;;18.53;57.91;100773.53;5062239;28;1525;-57
2022/03/29 07:50:37;;;;;;;;;;;;;;;18.50;57.33;100765.75;5059301;28;1279;-65
2022/03/29 07:53:05;;;;;;;;;;;;;;;18.45;57.98;100754.59;5065602;28;1736;-68
2022/03/29 07:55:33;;;;;;;;;;;;;;;18.37;57.40;100773.16;5068319;28;1981;-57
2022/03/29 07:58:00;;;;;;;;;;;;;;;18.27;57.83;100765.91;5065759;28;1572;-58
2022/03/29 08:00:36;;;;;;;;;;;;;;;18.26;57.36;100748.16;5057759;28;1411;-67
2022/03/29 08:03:03;;;;;;;;;;;;;;;18.25;55.92;100761.66;5066636;28;1537;-58
2022/03/29 08:05:30;;;;;;;;;;;;;;;18.23;53.81;100748.41;5060520;28;1724;-58
2022/03/29 08:07:58;;;;;;;;;;;;;;;18.25;55.86;100756.31;5063016;28;1573;-68
2022/03/29 08:10:25;;;;;;;;;;;;;;;18.31;55.46;100745.09;5061310;28;1703;-68
2022/03/29 08:12:53;;;;;;;;;;;;;;;18.32;54.84;100746.75;5062264;28;1317;-67
2022/03/29 08:15:20;;;;;;;;;;;;;;;18.34;54.79;100735.94;5065941;28;1975;-57
2022/03/29 08:17:47;;;;;;;;;;;;;;;18.32;54.80;100746.75;5063351;28;1716;-67
2022/03/29 08:20:14;;;;;;;;;;;;;;;18.23;54.80;100735.03;5063616;28;1563;-68
2022/03/29 08:22:44;;;;;;;;;;;;;;;18.25;54.58;100751.81;5066600;28;1529;-58
2022/03/29 08:25:13;;;;;;;;;;;;;;;18.24;54.55;100734.06;5066294;28;1306;-67
2022/03/29 08:27:39;;;;;;;;;;;;;;;18.28;54.16;100739.97;5060749;28;1692;-57
2022/03/29 08:30:08;;;;;;;;;;;;;;;18.28;54.16;100740.84;5058036;28;1366;-58
2022/03/29 08:32:35;;;;;;;;;;;;;;;18.28;54.31;100729.28;5058128;28;1601;-58
2022/03/29 08:35:02;;;;;;;;;;;;;;;18.28;53.04;100730.16;5060256;28;1910;-57
2022/03/29 08:37:28;;;;;;;;;;;;;;;18.24;53.92;100728.72;5064735;28;1425;-58
2022/03/29 08:39:55;;;;;;;;;;;;;;;18.21;53.86;100728.97;5065806;28;1758;-58
2022/03/29 08:42:23;;;;;;;;;;;;;;;18.18;53.75;100729.22;5060990;28;1430;-68
2022/03/29 08:44:50;;;;;;;;;;;;;;;18.22;53.39;100719.09;5057324;28;1724;-58
2022/03/29 08:47:18;;;;;;;;;;;;;;;18.27;53.45;100717.72;5054026;28;1644;-58
2022/03/29 08:49:45;;;;;;;;;;;;;;;18.23;53.27;100715.44;5061314;28;1524;-68
2022/03/29 08:52:12;;;;;;;;;;;;;;;18.18;53.40;100723.00;5063821;28;1688;-57
2022/03/29 08:54:39;;;;;;;;;;;;;;;18.16;53.15;100715.09;5069049;28;1902;-68
2022/03/29 08:57:05;;;;;;;;;;;;;;;18.16;52.96;100712.44;5058238;28;1700;-68
2022/03/29 08:59:32;;;;;;;;;;;;;;;18.15;53.14;100705.41;5063302;28;1450;-57
2022/03/29 09:01:59;;;;;;;;;;;;;;;18.11;51.60;100708.47;5060443;28;1487;-57
2022/03/29 09:04:29;;;;;;;;;;;;;;;18.32;52.29;100708.44;5060699;28;1643;-57
2022/03/29 09:07:00;;;;;;;;;;;;;;;18.39;51.25;100706.94;5063179;28;1361;-65
2022/03/29 09:09:28;;;;;;;;;;;;;;;18.46;51.29;100705.41;5059732;28;1972;-65
2022/03/29 09:11:56;;;;;;;;;;;;;;;18.52;52.53;100702.19;5060175;28;1363;-58
2022/03/29 09:14:23;;;;;;;;;;;;;;;18.58;52.74;100690.09;5059014;28;1623;-62
2022/03/29 09:16:51;;;;;;;;;;;;;;;18.61;53.37;100682.66;5059809;28;1981;-63
2022/03/29 09:19:18;;;;;;;;;;;;;;;18.65;52.78;100678.72;5052104;28;1422;-57
2022/03/29 09:21:46;;;;;;;;;;;;;;;18.68;53.13;100689.19;5062388;28;1559;-67
2022/03/29 09:24:14;;;;;;;;;;;;;;;18.61;53.77;100671.94;5057372;28;1708;-67
2022/03/29 09:26:42;;;;;;;;;;;;;;;18.55;53.72;100667.13;5059651;28;1545;-64
2022/03/29 09:29:15;;;;;;;;;;;;;;;18.52;53.64;100675.41;5065637;28;1700;-67
2022/03/29 09:31:41;;;;;;;;;;;;;;;18.49;54.50;100673.03;5060464;28;1403;-66
2022/03/29 09:34:12;;;;;;;;;;;;;;;18.46;54.74;100662.56;5057852;28;1569;-59
2022/03/29 09:36:43;;;;;;;;;;;;;;;18.57;54.56;100649.09;5056906;28;1946;-59
2022/03/29 09:39:29;;;;;;;;;;;;;;;18.48;55.26;100660.59;5064722;28;1751;-67
2022/03/29 09:41:57;;;;;;;;;;;;;;;18.42;55.04;100661.16;5060002;28;1567;-60
2022/03/29 09:44:33;;;;;;;;;;;;;;;18.16;53.05;100644.69;5062659;28;1568;-64
2022/03/29 09:47:01;;;;;;;;;;;;;;;18.20;54.67;100656.81;5064313;28;1381;-59
2022/03/29 09:49:28;;;;;;;;;;;;;;;18.22;54.90;100650.38;5064784;28;1690;-61
2022/03/29 09:52:08;;;;;;;;;;;;;;;18.27;54.24;100641.94;5069853;28;1656;-68
2022/03/29 09:54:36;;;;;;;;;;;;;;;18.39;52.97;100635.50;5059321;28;1517;-59
2022/03/29 09:57:03;;;;;;;;;;;;;;;18.42;53.41;100634.38;5062968;28;1969;-59
2022/03/29 09:59:31;;;;;;;;;;;;;;;18.40;53.53;100630.97;5071153;28;1561;-66
2022/03/29 10:01:58;;;;;;;;;;;;;;;18.47;53.45;100626.78;5063735;28;1708;-59
2022/03/29 10:04:25;;;;;;;;;;;;;;;18.53;53.56;100612.88;5060216;28;1637;-59
2022/03/29 10:06:53;;;;;;;;;;;;;;;18.59;54.07;100615.00;5067122;28;1707;-59
2022/03/29 10:09:30;;;;;;;;;;;;;;;18.62;54.57;100614.72;5059007;28;1697;-66
2022/03/29 10:11:59;;;;;;;;;;;;;;;18.62;54.62;100598.66;5068550;28;1386;-66
2022/03/29 10:14:26;;;;;;;;;;;;;;;18.73;54.54;100597.69;5070428;28;1409;-67
2022/03/29 10:16:53;;;;;;;;;;;;;;;18.83;54.86;100600.41;5062758;28;1910;-68
2022/03/29 10:19:21;;;;;;;;;;;;;;;18.93;55.53;100601.28;5065986;28;1395;-61
2022/03/29 10:21:47;;;;;;;;;;;;;;;18.85;54.88;100593.94;5068617;28;1351;-63
2022/03/29 10:24:14;;;;;;;;;;;;;;;18.86;55.58;100586.72;5062459;28;1343;-60
2022/03/29 10:26:41;;;;;;;;;;;;;;;18.83;56.08;100584.34;5067983;28;1410;-63
2022/03/29 10:29:10;;;;;;;;;;;;;;;18.83;56.72;100579.00;5069315;28;1747;-68
2022/03/29 10:31:39;;;;;;;;;;;;;;;18.83;57.49;100582.50;5058678;28;1755;-57
2022/03/29 10:34:18;;;;;;;;;;;;;;;18.88;57.68;100569.56;5070097;28;1544;-59
2022/03/29 10:37:01;;;;;;;;;;;;;;;18.88;57.11;100571.41;5050394;28;1902;-62
2022/03/29 10:39:41;;;;;;;;;;;;;;;18.90;56.79;100548.00;5060469;28;1521;-62
2022/03/29 10:42:23;;;;;;;;;;;;;;;18.98;57.94;100541.91;5058025;28;1752;-64
2022/03/29 10:45:09;;;;;;;;;;;;;;;18.94;57.52;100544.03;5056774;28;1641;-61
2022/03/29 10:47:35;;;;;;;;;;;;;;;18.94;57.32;100532.44;5066735;28;1739;-61
2022/03/29 10:50:03;;;;;;;;;;;;;;;18.91;57.57;100528.22;5057656;28;1549;-61
2022/03/29 10:52:30;;;;;;;;;;;;;;;18.91;57.76;100522.88;5065949;28;1521;-62
2022/03/29 10:55:16;;;;;;;;;;;;;;;18.89;57.27;100511.44;5066081;28;1402;-57
2022/03/29 10:58:03;;;;;;;;;;;;;;;18.91;57.44;100519.34;5064662;28;1385;-58
2022/03/29 11:00:31;;;;;;;;;;;;;;;18.90;57.30;100513.16;5059367;28;1335;-59
2022/03/29 11:03:07;;;;;;;;;;;;;;;18.86;57.50;100501.00;5061076;28;1552;-59
2022/03/29 11:05:34;;;;;;;;;;;;;;;18.88;57.51;100502.56;5062562;28;1505;-56
2022/03/29 11:08:10;;;;;;;;;;;;;;;18.87;57.18;100500.03;5067354;28;1417;-57
2022/03/29 11:10:41;;;;;;;;;;;;;;;18.82;57.01;100486.19;5056935;28;1508;-67
2022/03/29 11:13:22;;;;;;;;;;;;;;;18.81;57.22;100479.16;5062952;28;1443;-68
2022/03/29 11:15:50;;;;;;;;;;;;;;;18.83;57.28;100485.22;5046804;28;1925;-66
2022/03/29 11:18:50;;;;;;;;;;;;;;;18.78;57.75;100474.03;5061006;28;1628;-59
2022/03/29 11:21:30;;;;;;;;;;;;;;;18.75;57.31;100458.25;5065276;28;1418;-58
2022/03/29 11:23:58;;;;;;;;;;;;;;;18.76;57.37;100474.22;5055314;28;1697;-68
2022/03/29 11:26:25;;;;;;;;;;;;;;;18.74;57.42;100453.88;5052510;28;1344;-59
2022/03/29 11:28:52;;;;;;;;;;;;;;;18.75;57.69;100464.47;5070552;28;1278;-67
2022/03/29 11:31:21;;;;;;;;;;;;;;;18.73;57.98;100445.00;5056936;28;1445;-67
2022/03/29 11:33:49;;;;;;;;;;;;;;;18.67;57.70;100443.72;5065445;28;1501;-58
2022/03/29 11:36:16;;;;;;;;;;;;;;;18.72;57.96;100439.78;5056617;28;1902;-59
2022/03/29 11:38:44;;;;;;;;;;;;;;;18.67;57.91;100441.06;5059541;28;1430;-59
2022/03/29 11:41:20;;;;;;;;;;;;;;;18.67;58.03;100434.88;5063074;28;1318;-69
2022/03/29 11:43:51;;;;;;;;;;;;;;;18.67;58.32;100430.34;5055165;28;1361;-58
2022/03/29 11:46:17;;;;;;;;;;;;;;;18.63;58.16;100415.53;5054823;28;1485;-68
2022/03/29 11:48:49;;;;;;;;;;;;;;;18.60;57.98;100423.88;5065091;28;1676;-58
2022/03/29 11:51:16;;;;;;;;;;;;;;;18.60;58.24;100413.16;5061315;28;1410;-58
2022/03/29 11:53:43;;;;;;;;;;;;;;;18.62;57.89;100432.63;5059451;28;1533;-67
2022/03/29 11:56:11;;;;;;;;;;;;;;;18.61;57.99;100414.84;5063157;28;1967;-58
2022/03/29 11:58:39;;;;;;;;;;;;;;;18.57;57.91;100413.44;5062281;28;1303;-68
2022/03/29 12:01:08;;;;;;;;;;;;;;;18.59;58.47;100410.63;5055166;28;1374;-59
2022/03/29 12:03:36;;;;;;;;;;;;;;;18.59;57.96;100407.94;5054925;28;1487;-69
2022/03/29 12:06:04;;;;;;;;;;;;;;;18.62;58.33;100400.47;5060009;28;1549;-66
2022/03/29 12:08:58;;;;;;;;;;;;;;;18.66;58.04;100407.25;5054563;28;1407;-66
2022/03/29 12:11:25;;;;;;;;;;;;;;;18.67;58.35;100398.19;5008705;28;1422;-60
2022/03/29 12:14:03;;;;;;;;;;;;;;;18.64;58.01;100398.50;5062159;28;1527;-58
2022/03/29 12:16:30;;;;;;;;;;;;;;;18.79;57.95;100398.06;5056536;28;1992;-58
2022/03/29 12:18:57;;;;;;;;;;;;;;;18.82;58.26;100401.34;5060064;28;1604;-60
2022/03/29 12:21:25;;;;;;;;;;;;;;;18.81;57.85;100385.41;5062708;28;1692;-64
2022/03/29 12:23:59;;;;;;;;;;;;;;;19.17;56.71;100377.56;5060639;28;1506;-58
2022/03/29 12:26:26;;;;;;;;;;;;;;;19.61;55.73;100372.44;5063452;28;1740;-63
2022/03/29 12:28:52;;;;;;;;;;;;;;;19.80;56.41;100380.41;5067961;28;1588;-58
2022/03/29 12:31:20;;;;;;;;;;;;;;;19.86;56.55;100369.06;5058435;28;1319;-61
2022/03/29 12:33:47;;;;;;;;;;;;;;;20.10;56.22;100356.91;5066098;28;1342;-59
2022/03/29 12:36:14;;;;;;;;;;;;;;;20.17;55.10;100355.28;5064205;28;1973;-66
2022/03/29 12:38:45;;;;;;;;;;;;;;;20.25;55.91;100363.44;5062288;28;1579;-70
2022/03/29 12:41:12;;;;;;;;;;;;;;;20.28;55.02;100373.03;5066733;28;1462;-58
2022/03/29 12:43:39;;;;;;;;;;;;;;;20.20;56.13;100346.94;5062426;28;1779;-59
2022/03/29 12:46:10;;;;;;;;;;;;;;;20.48;56.05;100346.00;5058322;28;1591;-57
2022/03/29 12:48:38;;;;;;;;;;;;;;;19.83;56.07;100347.06;5059891;28;1446;-66
2022/03/29 12:51:07;;;;;;;;;;;;;;;19.39;57.18;100347.69;5060246;28;1577;-59
2022/03/29 12:53:34;;;;;;;;;;;;;;;19.21;58.53;100347.63;5061835;28;1355;-59
2022/03/29 12:56:09;;;;;;;;;;;;;;;19.38;57.38;100343.34;5059979;28;1977;-64
2022/03/29 12:58:37;;;;;;;;;;;;;;;19.42;58.07;100350.09;5064839;28;1370;-68
2022/03/29 13:01:04;;;;;;;;;;;;;;;19.27;58.57;100330.09;5055616;28;1771;-63
2022/03/29 13:03:36;;;;;;;;;;;;;;;19.17;58.91;100332.81;5053688;28;1617;-61
2022/03/29 13:06:03;;;;;;;;;;;;;;;19.25;58.35;100324.88;5061708;28;1518;-60
2022/03/29 13:08:30;;;;;;;;;;;;;;;19.07;59.19;100314.09;5065239;28;1685;-71
2022/03/29 13:10:57;;;;;;;;;;;;;;;18.91;58.86;100327.28;5057545;28;1482;-60
2022/03/29 13:13:29;;;;;;;;;;;;;;;18.74;58.47;100323.50;5060315;28;1457;-60
2022/03/29 13:15:56;;;;;;;;;;;;;;;18.63;57.99;100324.50;5054873;28;1973;-60